Time;durP1;ratioP1;P1;durP2;ratioP2;P2;SDS_P1;SDS_P2;PMS_P1;PMS_P2;Temp;Humidity;BMP_temperature;BMP_pressure;BME280_temperature;BME280_humidity;BME280_pressure;Samples;Min_cycle;Max_cycle;Signal;HPM_P1;HPM_P2
2022/11/05 00:16:42;;;;;;;6.53;1.80;;;22.50;52.00;;;;;;5039975;28;20261;-69
2022/11/05 00:16:55;;;;;;;4.73;1.50;;;22.50;50.00;;;;;;5047034;28;20712;-69
2022/11/05 00:19:23;;;;;;;7.17;1.57;;;22.70;50.80;;;;;;5051822;28;20576;-70
2022/11/05 00:27:27;;;;;;;6.47;1.40;;;22.80;47.90;;;;;;5050496;28;20668;-68
2022/11/05 00:29:54;;;;;;;5.17;2.00;;;22.80;49.30;;;;;;5054396;28;20634;-70
2022/11/05 00:32:21;;;;;;;5.40;1.60;;;23.10;48.80;;;;;;5053340;28;20230;-68
2022/11/05 00:34:49;;;;;;;6.00;1.63;;;23.30;48.90;;;;;;5052003;28;20618;-75
2022/11/05 00:37:16;;;;;;;4.03;1.20;;;23.30;49.10;;;;;;5053237;28;20178;-73
2022/11/05 00:39:43;;;;;;;2.23;1.10;;;23.40;46.40;;;;;;5053688;28;20613;-69
2022/11/05 00:45:01;;;;;;;6.43;2.40;;;23.20;46.60;;;;;;5054797;28;20281;-68
2022/11/05 00:50:15;;;;;;;2.60;1.10;;;23.40;46.80;;;;;;5055048;28;20194;-73
2022/11/05 00:52:59;;;;;;;4.30;1.27;;;23.30;45.50;;;;;;5054436;28;20234;-68
2022/11/05 00:55:41;;;;;;;3.97;1.40;;;23.10;47.10;;;;;;5054332;28;20215;-69
2022/11/05 00:58:12;;;;;;;6.27;1.57;;;23.30;48.70;;;;;;5054867;28;20570;-70
2022/11/05 01:00:42;;;;;;;6.37;1.60;;;23.40;48.40;;;;;;5054616;28;20258;-69
2022/11/05 01:03:14;;;;;;;6.73;1.50;;;23.50;48.10;;;;;;5054382;28;20184;-69
2022/11/05 01:05:55;;;;;;;4.60;1.70;;;23.90;46.60;;;;;;5036153;28;20169;-70
2022/11/05 01:08:24;;;;;;;6.67;1.53;;;23.80;46.50;;;;;;5054309;28;20630;-69
2022/11/05 01:10:55;;;;;;;5.30;1.33;;;23.90;46.70;;;;;;5054535;28;20182;-68
2022/11/05 01:13:29;;;;;;;7.13;1.63;;;23.80;46.10;;;;;;5054249;28;20537;-67
2022/11/05 01:16:03;;;;;;;5.07;1.40;;;23.30;46.70;;;;;;5054373;28;20288;-67
2022/11/05 01:18:31;;;;;;;5.47;1.30;;;23.30;47.80;;;;;;5054141;28;20260;-67
2022/11/05 01:20:58;;;;;;;4.63;1.10;;;23.70;46.70;;;;;;5054446;28;20207;-67
2022/11/05 01:23:25;;;;;;;5.63;1.40;;;23.50;47.70;;;;;;5053786;28;20271;-68
2022/11/05 01:25:53;;;;;;;5.80;1.23;;;23.60;45.30;;;;;;5054360;28;20263;-68
2022/11/05 01:28:20;;;;;;;8.93;1.70;;;23.30;46.90;;;;;;5054219;28;20639;-71
2022/11/05 01:30:55;;;;;;;4.77;1.47;;;23.30;44.70;;;;;;5054057;28;20263;-69
2022/11/05 01:33:24;;;;;;;5.17;1.53;;;23.40;45.40;;;;;;5053550;28;20171;-69
2022/11/05 01:35:52;;;;;;;5.97;1.50;;;23.50;47.80;;;;;;5053632;28;20215;-69
2022/11/05 01:38:19;;;;;;;5.67;1.70;;;23.90;45.50;;;;;;5053790;28;20167;-69
2022/11/05 01:40:47;;;;;;;6.47;1.60;;;23.70;45.10;;;;;;5036064;28;20229;-69
2022/11/05 01:43:22;;;;;;;3.63;1.60;;;23.60;46.00;;;;;;5053582;28;20464;-68
2022/11/05 01:45:58;;;;;;;4.40;1.67;;;23.30;47.00;;;;;;5053660;28;20228;-68
2022/11/05 01:48:35;;;;;;;8.80;1.63;;;23.80;47.20;;;;;;5053849;28;20199;-67
2022/11/05 01:51:06;;;;;;;43.83;3.27;;;24.10;46.30;;;;;;5049654;28;20180;-67
2022/11/05 01:53:58;;;;;;;4.17;1.17;;;24.30;47.40;;;;;;5040473;28;20176;-70
2022/11/05 01:56:41;;;;;;;3.67;1.33;;;24.10;46.40;;;;;;5053739;28;20216;-72
2022/11/05 01:59:24;;;;;;;6.07;1.63;;;24.10;44.80;;;;;;5053471;28;20534;-68
2022/11/05 02:01:52;;;;;;;8.83;1.50;;;24.50;45.50;;;;;;5052329;28;20210;-68
2022/11/05 02:04:46;;;;;;;4.93;1.40;;;24.60;44.50;;;;;;5053457;28;20282;-73
2022/11/05 02:07:14;;;;;;;9.23;1.60;;;24.40;44.70;;;;;;5052781;28;20210;-72
2022/11/05 02:10:07;;;;;;;3.90;1.10;;;24.30;45.90;;;;;;5053192;28;20189;-74
2022/11/05 02:12:37;;;;;;;8.37;1.67;;;23.90;45.70;;;;;;5053170;28;20183;-74
2022/11/05 02:15:05;;;;;;;4.80;1.60;;;24.20;46.50;;;;;;5053166;28;20172;-75
2022/11/05 02:18:11;;;;;;;7.37;1.70;;;24.30;46.00;;;;;;5052727;28;20191;-68
2022/11/05 02:21:07;;;;;;;3.53;1.50;;;24.40;45.60;;;;;;5044848;28;20572;-72
2022/11/05 02:23:56;;;;;;;6.30;1.40;;;24.60;45.30;;;;;;5027302;28;20183;-69
2022/11/05 02:26:38;;;;;;;4.77;1.50;;;24.60;44.80;;;;;;5052956;28;20195;-73
2022/11/05 02:29:23;;;;;;;4.20;1.50;;;24.60;45.60;;;;;;5053143;28;20221;-71
2022/11/05 02:32:02;;;;;;;3.43;1.10;;;25.20;45.10;;;;;;5052917;28;20646;-74
2022/11/05 02:34:51;;;;;;;5.93;1.47;;;24.80;46.40;;;;;;5037983;28;20178;-72
2022/11/05 02:37:40;;;;;;;4.63;1.67;;;25.10;46.00;;;;;;5052573;28;20275;-70
2022/11/05 02:40:38;;;;;;;4.43;1.47;;;24.70;46.60;;;;;;5051862;28;20184;-68
2022/11/05 02:43:51;;;;;;;6.73;1.30;;;25.00;45.80;;;;;;5047153;28;20184;-70
2022/11/05 02:46:25;;;;;;;4.67;1.40;;;24.30;47.20;;;;;;5026445;28;20277;-69
2022/11/05 02:49:12;;;;;;;4.40;1.30;;;24.70;47.10;;;;;;5047184;28;20630;-70
2022/11/05 02:51:50;;;;;;;5.57;1.23;;;24.70;46.90;;;;;;5052575;28;20546;-69
2022/11/05 02:54:37;;;;;;;3.73;1.23;;;24.40;46.50;;;;;;5052779;28;20180;-73
2022/11/05 02:57:05;;;;;;;8.20;1.50;;;24.80;46.10;;;;;;5035646;28;20210;-70
2022/11/05 02:59:32;;;;;;;3.77;1.27;;;24.50;46.70;;;;;;5052430;28;20182;-68
2022/11/05 03:02:02;;;;;;;4.30;1.07;;;24.70;47.00;;;;;;5052532;28;20187;-68
2022/11/05 03:04:31;;;;;;;6.10;1.67;;;24.40;47.10;;;;;;5052887;28;20179;-70
2022/11/05 03:07:24;;;;;;;3.97;1.20;;;24.60;46.60;;;;;;5051969;28;20255;-70
2022/11/05 03:10:33;;;;;;;5.03;1.37;;;24.70;46.10;;;;;;5034944;28;20177;-69
2022/11/05 03:13:04;;;;;;;4.70;1.47;;;24.60;46.60;;;;;;5040164;28;20187;-68
2022/11/05 03:16:24;;;;;;;4.87;1.60;;;24.60;46.90;;;;;;5048821;28;20211;-69
2022/11/05 03:19:15;;;;;;;5.53;1.27;;;24.60;48.10;;;;;;4932939;29;20195;-70
2022/11/05 03:21:59;;;;;;;7.30;2.73;;;25.30;46.20;;;;;;5044032;28;20192;-69
2022/11/05 03:24:33;;;;;;;5.23;3.43;;;24.90;47.70;;;;;;5052226;28;20176;-69
2022/11/05 03:27:05;;;;;;;5.97;2.30;;;25.30;47.10;;;;;;5052417;28;20184;-70
2022/11/05 03:29:44;;;;;;;6.83;1.20;;;25.00;46.70;;;;;;5050223;28;20198;-69
2022/11/05 03:32:13;;;;;;;4.77;1.20;;;25.60;44.90;;;;;;5027800;28;20654;-69
2022/11/05 03:34:49;;;;;;;7.20;1.60;;;25.80;45.20;;;;;;5051793;28;20238;-68
2022/11/05 03:37:19;;;;;;;5.20;1.60;;;25.30;45.50;;;;;;5051437;28;20669;-67
2022/11/05 03:39:51;;;;;;;4.97;1.50;;;25.00;47.80;;;;;;5052315;28;20202;-70
2022/11/05 03:42:24;;;;;;;5.70;1.30;;;24.60;48.60;;;;;;5052221;28;20191;-68
2022/11/05 03:44:56;;;;;;;7.37;1.77;;;24.80;48.30;;;;;;5051341;28;20215;-69
2022/11/05 03:47:29;;;;;;;4.10;1.10;;;25.60;46.90;;;;;;5051551;28;20190;-69
2022/11/05 03:50:16;;;;;;;4.50;2.07;;;25.60;46.50;;;;;;5048412;28;20230;-69
2022/11/05 03:52:53;;;;;;;7.23;2.00;;;25.40;46.80;;;;;;5010996;28;20219;-69
2022/11/05 03:55:30;;;;;;;3.43;1.20;;;25.30;48.00;;;;;;5051623;28;20200;-68
2022/11/05 03:57:58;;;;;;;6.60;1.70;;;25.20;48.20;;;;;;5053894;28;20668;-68
2022/11/05 04:00:26;;;;;;;4.17;1.20;;;24.90;48.70;;;;;;5055548;28;20177;-68
2022/11/05 04:02:54;;;;;;;7.90;1.63;;;24.90;49.10;;;;;;5057353;28;20237;-67
2022/11/05 04:05:21;;;;;;;4.13;1.20;;;25.40;48.30;;;;;;5064854;28;20596;-68
2022/11/05 04:13:25;;;;;;;4.70;1.20;;;25.30;47.60;;;;;;5055119;28;20206;-68
2022/11/05 04:18:40;;;;;;;6.23;1.30;;;25.20;48.90;;;;;;5041764;28;20183;-68
2022/11/05 04:24:09;;;;;;;4.90;1.43;;;25.80;47.30;;;;;;5055499;28;20273;-69
2022/11/05 04:26:46;;;;;;;6.37;1.60;;;25.20;48.30;;;;;;5044033;28;20220;-70
2022/11/05 04:31:58;;;;;;;4.03;1.30;;;26.00;47.40;;;;;;5051742;28;20238;-67
2022/11/05 04:34:26;;;;;;;5.33;1.40;;;25.60;47.00;;;;;;5049781;28;20183;-68
2022/11/05 04:36:53;;;;;;;4.43;1.40;;;25.50;46.80;;;;;;5055067;28;20220;-67
2022/11/05 04:39:21;;;;;;;5.53;1.40;;;25.30;47.40;;;;;;5054368;28;20183;-68
2022/11/05 04:41:48;;;;;;;5.73;2.00;;;25.30;47.60;;;;;;5053670;28;20184;-68
2022/11/05 04:44:16;;;;;;;5.83;1.77;;;25.50;47.80;;;;;;5054557;28;20228;-68
2022/11/05 04:46:43;;;;;;;9.87;1.10;;;25.70;47.80;;;;;;5048642;28;20553;-68
2022/11/05 04:49:11;;;;;;;7.50;1.40;;;25.60;46.60;;;;;;5044603;28;20233;-68
2022/11/05 04:51:38;;;;;;;5.87;1.30;;;25.90;46.60;;;;;;5052843;28;20192;-68
2022/11/05 04:54:06;;;;;;;4.13;1.27;;;25.80;46.50;;;;;;5054445;28;20188;-68
2022/11/05 04:56:34;;;;;;;3.63;1.03;;;25.70;47.00;;;;;;5054545;28;20216;-71
2022/11/05 04:59:01;;;;;;;7.03;1.57;;;25.60;47.40;;;;;;5053977;28;20200;-69
2022/11/05 05:01:28;;;;;;;2.73;1.00;;;25.80;47.20;;;;;;5049153;28;20273;-71
2022/11/05 05:03:56;;;;;;;5.50;1.13;;;25.30;48.30;;;;;;5046822;28;20322;-71
2022/11/05 05:06:23;;;;;;;7.63;1.43;;;25.60;48.30;;;;;;5048752;28;20195;-68
2022/11/05 05:08:51;;;;;;;6.07;1.47;;;25.80;47.20;;;;;;5052916;28;20535;-69
2022/11/05 05:11:21;;;;;;;5.10;1.20;;;25.60;47.80;;;;;;5052448;28;20216;-68
2022/11/05 05:13:49;;;;;;;3.57;1.43;;;25.50;48.20;;;;;;5054500;28;20247;-73
2022/11/05 05:16:20;;;;;;;8.60;1.30;;;25.80;47.20;;;;;;5053638;28;20211;-68
2022/11/05 05:18:49;;;;;;;8.17;1.77;;;25.20;48.80;;;;;;5053082;28;20176;-69
2022/11/05 05:24:04;;;;;;;9.20;3.43;;;25.60;48.40;;;;;;5053980;28;20260;-69
2022/11/05 05:26:32;;;;;;;5.77;4.03;;;26.00;46.30;;;;;;5053538;28;20183;-71
2022/11/05 05:28:59;;;;;;;5.20;1.47;;;26.60;45.00;;;;;;5048226;28;20274;-71
2022/11/05 05:31:26;;;;;;;6.10;1.00;;;25.90;44.20;;;;;;5053201;28;20207;-69
2022/11/05 05:33:55;;;;;;;4.63;1.40;;;25.60;46.00;;;;;;5052759;28;20593;-70
2022/11/05 05:36:23;;;;;;;4.10;1.50;;;25.30;46.00;;;;;;5050116;28;20212;-70
2022/11/05 05:38:50;;;;;;;5.40;1.60;;;25.10;45.20;;;;;;5050349;28;20184;-68
2022/11/05 05:41:18;;;;;;;9.60;1.27;;;25.30;45.30;;;;;;5047853;28;20185;-69
2022/11/05 05:43:45;;;;;;;4.03;1.07;;;25.10;47.30;;;;;;5052485;28;20221;-68
2022/11/05 05:46:15;;;;;;;2.57;0.90;;;25.50;46.60;;;;;;5052409;28;20194;-67
2022/11/05 05:48:47;;;;;;;3.53;1.10;;;25.90;45.30;;;;;;5052829;28;20188;-68
2022/11/05 05:51:14;;;;;;;8.43;1.50;;;26.10;45.00;;;;;;5053522;28;20175;-69
2022/11/05 05:53:42;;;;;;;5.90;1.30;;;25.20;48.10;;;;;;5046208;28;20211;-67
2022/11/05 05:56:09;;;;;;;3.67;1.20;;;25.30;48.20;;;;;;5053629;28;20207;-69
2022/11/05 05:58:38;;;;;;;6.20;1.30;;;25.30;47.40;;;;;;5053540;28;20645;-69
2022/11/05 06:01:10;;;;;;;5.70;1.33;;;25.20;48.70;;;;;;5052981;28;20186;-67
2022/11/05 06:03:37;;;;;;;4.63;1.33;;;24.90;49.20;;;;;;5052500;28;20238;-67
2022/11/05 06:06:07;;;;;;;4.83;1.23;;;25.20;48.40;;;;;;5053492;28;20183;-66
2022/11/05 06:08:34;;;;;;;4.37;1.13;;;25.00;49.20;;;;;;5053367;28;20183;-68
2022/11/05 06:11:03;;;;;;;4.23;0.97;;;25.30;48.40;;;;;;5053287;28;20245;-71
2022/11/05 06:13:30;;;;;;;5.73;1.50;;;25.50;47.90;;;;;;5051511;28;20700;-67
2022/11/05 06:16:02;;;;;;;3.77;1.33;;;25.60;47.90;;;;;;5053004;28;20287;-69
2022/11/05 06:18:31;;;;;;;6.37;1.60;;;25.70;48.20;;;;;;5053259;28;20183;-70
2022/11/05 06:21:03;;;;;;;4.43;1.20;;;26.10;46.60;;;;;;5052156;28;20499;-68
2022/11/05 06:23:32;;;;;;;6.07;1.50;;;25.20;48.10;;;;;;5068212;28;20264;-70
2022/11/05 06:26:03;;;;;;;4.77;0.90;;;25.30;48.40;;;;;;5052198;28;20176;-70
2022/11/05 06:28:32;;;;;;;5.53;1.10;;;24.70;49.60;;;;;;5046484;28;20597;-69
2022/11/05 06:31:00;;;;;;;5.53;1.13;;;24.60;49.50;;;;;;5052438;28;20180;-68
2022/11/05 06:33:27;;;;;;;3.23;1.23;;;25.00;47.90;;;;;;5051506;28;20180;-69
2022/11/05 06:35:58;;;;;;;7.80;1.20;;;25.30;47.60;;;;;;5052447;28;20257;-70
2022/11/05 06:38:25;;;;;;;4.63;0.90;;;25.40;47.00;;;;;;5052560;28;20168;-68
2022/11/05 06:40:53;;;;;;;5.73;1.20;;;25.30;46.70;;;;;;5052233;28;20191;-67
2022/11/05 06:43:20;;;;;;;2.90;1.10;;;25.30;47.00;;;;;;5051477;28;20183;-70
2022/11/05 06:45:47;;;;;;;3.53;1.20;;;25.00;46.90;;;;;;5052084;28;20223;-69
2022/11/05 06:48:15;;;;;;;4.93;1.30;;;25.00;46.70;;;;;;5052505;28;20179;-73
2022/11/05 06:50:45;;;;;;;3.33;1.40;;;24.70;46.80;;;;;;5051994;28;20179;-68
2022/11/05 06:53:13;;;;;;;4.77;1.57;;;24.40;47.30;;;;;;5051695;28;20172;-70
2022/11/05 06:55:43;;;;;;;2.50;1.00;;;24.90;46.50;;;;;;5047641;28;20276;-72
2022/11/05 06:58:10;;;;;;;5.50;1.30;;;24.60;47.90;;;;;;5051231;28;20187;-68
2022/11/05 07:00:38;;;;;;;6.60;1.27;;;24.70;47.70;;;;;;5051865;28;20254;-68
2022/11/05 07:03:10;;;;;;;5.70;1.00;;;24.70;48.50;;;;;;5055588;28;20180;-69
2022/11/05 07:05:42;;;;;;;5.13;1.23;;;24.30;49.90;;;;;;5032819;28;20191;-67
2022/11/05 07:08:09;;;;;;;7.47;1.30;;;24.60;49.10;;;;;;5052313;28;20172;-68
2022/11/05 07:10:37;;;;;;;6.20;1.00;;;24.50;49.50;;;;;;5052230;28;20191;-71
2022/11/05 07:13:04;;;;;;;7.63;1.30;;;24.50;49.60;;;;;;5052067;28;20259;-68
2022/11/05 07:15:31;;;;;;;7.97;1.77;;;23.90;50.40;;;;;;5051643;28;20278;-68
2022/11/05 07:18:00;;;;;;;4.60;1.60;;;23.40;51.50;;;;;;5051384;28;21063;-68
2022/11/05 07:20:28;;;;;;;5.43;1.63;;;23.70;51.10;;;;;;5050839;28;20210;-68
2022/11/05 07:23:03;;;;;;;8.90;1.20;;;24.10;49.70;;;;;;5052041;28;20649;-67
2022/11/05 07:25:32;;;;;;;4.63;0.90;;;23.80;49.90;;;;;;5039495;28;20210;-72
2022/11/05 07:28:00;;;;;;;6.23;1.03;;;22.90;52.00;;;;;;5051359;28;20180;-66
2022/11/05 07:30:28;;;;;;;4.57;1.00;;;22.20;54.00;;;;;;5052045;28;20199;-68
2022/11/05 07:32:55;;;;;;;5.50;1.23;;;21.50;55.70;;;;;;5054274;28;20534;-69
2022/11/05 07:35:23;;;;;;;11.73;1.87;;;21.30;56.30;;;;;;5055621;28;20184;-68
2022/11/05 07:37:55;;;;;;;5.13;1.40;;;20.90;57.50;;;;;;5054265;28;20519;-67
2022/11/05 07:40:24;;;;;;;5.57;1.40;;;20.80;58.80;;;;;;5056265;28;20180;-69
2022/11/05 07:42:53;;;;;;;3.20;1.00;;;20.60;59.80;;;;;;5054750;28;20216;-67
2022/11/05 07:45:21;;;;;;;5.80;1.30;;;20.40;60.30;;;;;;5051468;28;20228;-67
2022/11/05 07:47:59;;;;;;;6.97;1.07;;;20.40;60.60;;;;;;5054831;28;20223;-67
2022/11/05 07:50:29;;;;;;;5.83;1.30;;;20.40;60.50;;;;;;5052439;28;20263;-68
2022/11/05 07:53:04;;;;;;;4.17;1.33;;;20.30;60.60;;;;;;5052795;28;20263;-67
2022/11/05 07:55:33;;;;;;;4.57;1.63;;;20.30;59.90;;;;;;5037556;28;20610;-67
2022/11/05 07:58:00;;;;;;;6.30;1.60;;;20.30;59.90;;;;;;5055541;28;20184;-67
2022/11/05 08:00:29;;;;;;;9.10;1.60;;;20.10;59.60;;;;;;5055149;28;20267;-67
2022/11/05 08:03:08;;;;;;;4.37;1.10;;;20.00;58.00;;;;;;5055177;28;20626;-67
2022/11/05 08:05:37;;;;;;;5.63;1.43;;;19.90;58.60;;;;;;5054498;28;20297;-67
2022/11/05 08:08:06;;;;;;;2.90;1.23;;;19.90;58.50;;;;;;5055186;28;20218;-67
2022/11/05 08:10:35;;;;;;;4.97;1.10;;;19.90;58.30;;;;;;5055201;28;20194;-67
2022/11/05 08:13:02;;;;;;;6.43;1.40;;;19.80;57.40;;;;;;5054768;28;20190;-66
2022/11/05 08:15:30;;;;;;;3.97;1.23;;;19.70;58.50;;;;;;5055267;28;20207;-68
2022/11/05 08:18:02;;;;;;;5.80;1.47;;;19.80;58.80;;;;;;5055191;28;20215;-69
2022/11/05 08:20:29;;;;;;;6.77;1.70;;;19.60;59.50;;;;;;5040265;28;20218;-68
2022/11/05 08:22:57;;;;;;;5.33;1.40;;;19.60;60.00;;;;;;5049521;28;20206;-66
2022/11/05 08:25:25;;;;;;;5.67;1.57;;;19.50;60.10;;;;;;5053599;28;20590;-66
2022/11/05 08:28:02;;;;;;;5.87;1.10;;;19.40;60.50;;;;;;5053535;28;20251;-66
2022/11/05 08:30:31;;;;;;;4.00;1.00;;;19.30;60.80;;;;;;5046697;28;20239;-65
2022/11/05 08:33:00;;;;;;;13.80;1.83;;;19.40;60.80;;;;;;5041542;28;20173;-67
2022/11/05 08:35:28;;;;;;;7.97;1.20;;;19.30;60.90;;;;;;5030111;28;20200;-69
2022/11/05 08:38:01;;;;;;;6.27;1.83;;;19.30;60.40;;;;;;5054713;28;20180;-67
2022/11/05 08:40:30;;;;;;;6.83;1.13;;;19.30;60.10;;;;;;5054126;28;20212;-66
2022/11/05 08:43:02;;;;;;;4.83;1.43;;;19.30;60.30;;;;;;5054308;28;20188;-67
2022/11/05 08:45:30;;;;;;;5.47;1.20;;;19.30;60.30;;;;;;5048406;28;20277;-70
2022/11/05 08:48:05;;;;;;;6.30;1.77;;;19.20;59.90;;;;;;5050067;28;20180;-69
2022/11/05 08:50:33;;;;;;;6.53;1.40;;;19.20;60.10;;;;;;5049479;28;20191;-66
2022/11/05 08:53:01;;;;;;;4.97;1.30;;;19.20;59.60;;;;;;5054780;28;20706;-66
2022/11/05 08:55:29;;;;;;;10.10;1.80;;;19.20;59.80;;;;;;5053783;28;20307;-66
2022/11/05 08:57:58;;;;;;;4.70;1.87;;;19.20;60.10;;;;;;5054651;28;20245;-66
2022/11/05 09:00:28;;;;;;;5.63;2.33;;;19.20;60.20;;;;;;5053115;28;20233;-67
2022/11/05 09:02:57;;;;;;;8.17;2.20;;;19.20;60.10;;;;;;5054259;28;20218;-66
2022/11/05 09:05:25;;;;;;;4.30;1.60;;;19.10;60.60;;;;;;5054894;28;20518;-66
2022/11/05 09:07:52;;;;;;;5.97;1.60;;;19.10;61.10;;;;;;5041813;28;20195;-75
2022/11/05 09:10:20;;;;;;;7.60;2.30;;;19.00;61.00;;;;;;5033850;28;20203;-67
2022/11/05 09:12:47;;;;;;;5.17;1.70;;;19.10;61.30;;;;;;5053949;28;20620;-67
2022/11/05 09:15:14;;;;;;;4.43;1.37;;;19.00;61.70;;;;;;5053248;28;20197;-66
2022/11/05 09:17:42;;;;;;;6.50;1.53;;;19.00;62.20;;;;;;5054278;28;20211;-68
2022/11/05 09:20:11;;;;;;;5.13;1.70;;;19.00;62.30;;;;;;5052376;28;20186;-67
2022/11/05 09:22:39;;;;;;;6.77;1.47;;;19.00;62.50;;;;;;5045193;28;20268;-66
2022/11/05 09:25:07;;;;;;;9.17;1.77;;;19.00;63.00;;;;;;5052703;28;20668;-67
2022/11/05 09:27:34;;;;;;;5.47;1.53;;;19.00;63.30;;;;;;5053878;28;20179;-68
2022/11/05 09:30:03;;;;;;;8.20;1.37;;;19.00;63.70;;;;;;5052943;28;20182;-67
2022/11/05 09:32:33;;;;;;;6.53;2.27;;;18.90;63.90;;;;;;5053592;28;20548;-67
2022/11/05 09:35:01;;;;;;;5.93;2.53;;;18.80;63.70;;;;;;5053636;28;20180;-66
2022/11/05 09:37:29;;;;;;;21.60;10.00;;;18.90;63.70;;;;;;5053982;28;20215;-67
2022/11/05 09:39:56;;;;;;;5.33;2.70;;;18.90;63.70;;;;;;5051623;28;20643;-67
2022/11/05 09:42:30;;;;;;;5.27;1.30;;;18.80;63.70;;;;;;5052423;28;20183;-67
2022/11/05 09:45:09;;;;;;;6.17;3.40;;;18.80;63.60;;;;;;5051188;28;20617;-67
2022/11/05 09:47:43;;;;;;;9.00;1.87;;;18.80;63.50;;;;;;5040623;28;20263;-67
2022/11/05 09:50:25;;;;;;;10.07;2.60;;;18.80;63.70;;;;;;5053034;28;20176;-67
2022/11/05 09:52:52;;;;;;;11.77;5.13;;;18.80;64.10;;;;;;5041443;28;20184;-67
2022/11/05 09:55:33;;;;;;;10.80;5.00;;;18.80;64.30;;;;;;5046980;28;20192;-66
2022/11/05 09:58:04;;;;;;;5.37;1.80;;;18.80;64.40;;;;;;5041762;28;20191;-67
2022/11/05 10:00:32;;;;;;;7.03;1.47;;;18.80;64.20;;;;;;5052599;28;20176;-67
2022/11/05 10:03:05;;;;;;;8.33;1.50;;;18.80;64.30;;;;;;5053476;28;20176;-67
2022/11/05 10:05:33;;;;;;;4.73;1.27;;;18.70;64.50;;;;;;5051526;28;20188;-69
2022/11/05 10:08:17;;;;;;;9.60;3.53;;;18.70;64.70;;;;;;5052679;28;20196;-68
2022/11/05 10:10:46;;;;;;;12.03;5.40;;;18.70;65.00;;;;;;5051373;28;20180;-66
2022/11/05 10:13:34;;;;;;;4.90;1.50;;;18.70;65.30;;;;;;5048727;28;20180;-68
2022/11/05 10:16:40;;;;;;;8.67;1.90;;;18.60;64.80;;;;;;5051621;28;20211;-67
2022/11/05 10:19:41;;;;;;;10.57;2.33;;;18.70;65.10;;;;;;5052589;28;20183;-66
2022/11/05 10:22:17;;;;;;;7.80;4.70;;;18.60;64.70;;;;;;5039819;28;20187;-67
2022/11/05 10:24:48;;;;;;;5.40;1.43;;;18.60;64.70;;;;;;5051769;28;20187;-67
2022/11/05 10:27:30;;;;;;;5.00;1.50;;;18.50;64.60;;;;;;5050538;28;20218;-67
2022/11/05 10:29:57;;;;;;;22.93;15.53;;;18.50;64.40;;;;;;5052795;28;20258;-67
2022/11/05 10:32:30;;;;;;;18.53;12.37;;;18.50;64.50;;;;;;5052462;28;20534;-67
2022/11/05 10:34:59;;;;;;;6.27;2.17;;;18.50;64.80;;;;;;5051315;28;20188;-70
2022/11/05 10:37:28;;;;;;;8.77;1.67;;;18.50;64.80;;;;;;5051450;28;20288;-71
2022/11/05 10:39:56;;;;;;;5.00;1.57;;;18.50;65.00;;;;;;5052171;28;20194;-67
2022/11/05 10:42:39;;;;;;;5.57;1.60;;;18.40;65.00;;;;;;5050152;28;20367;-68
2022/11/05 10:45:18;;;;;;;4.20;1.50;;;18.40;65.40;;;;;;5051529;28;20218;-69
2022/11/05 10:47:57;;;;;;;6.37;1.93;;;18.40;65.70;;;;;;5047968;28;20317;-68
2022/11/05 10:50:28;;;;;;;3.13;1.10;;;18.40;65.80;;;;;;5048299;28;20630;-67
2022/11/05 10:53:21;;;;;;;6.10;1.30;;;18.40;65.80;;;;;;5052187;28;20174;-67
2022/11/05 10:55:51;;;;;;;4.93;1.30;;;18.40;65.90;;;;;;5049868;28;20212;-67
2022/11/05 10:58:18;;;;;;;7.27;1.30;;;18.30;66.20;;;;;;5050908;28;20187;-68
2022/11/05 11:01:06;;;;;;;4.97;1.27;;;18.30;66.60;;;;;;5050974;28;20172;-68
2022/11/05 11:03:44;;;;;;;7.57;1.60;;;18.30;66.50;;;;;;5048928;28;20265;-67
2022/11/05 11:06:26;;;;;;;11.20;1.47;;;18.30;66.60;;;;;;5047842;28;20712;-68
2022/11/05 11:08:59;;;;;;;11.03;1.70;;;18.30;66.40;;;;;;5050271;28;20191;-70
2022/11/05 11:11:36;;;;;;;8.47;1.53;;;18.30;66.50;;;;;;5048024;28;20194;-67
2022/11/05 11:14:13;;;;;;;7.77;1.50;;;18.30;66.90;;;;;;5048703;28;20184;-67
2022/11/05 11:16:46;;;;;;;23.30;2.93;;;18.30;67.00;;;;;;5050314;28;20207;-67
2022/11/05 11:19:39;;;;;;;4.80;1.43;;;18.30;67.30;;;;;;5051901;28;20180;-67
2022/11/05 11:22:06;;;;;;;7.80;1.43;;;18.30;67.50;;;;;;5049093;28;20192;-68
2022/11/05 11:24:42;;;;;;;6.50;1.40;;;18.30;67.50;;;;;;5051335;28;20241;-67
2022/11/05 11:27:27;;;;;;;9.53;1.10;;;18.20;67.70;;;;;;5051550;28;20266;-68
2022/11/05 11:30:02;;;;;;;3.00;1.10;;;18.20;67.70;;;;;;5051311;28;20554;-68
2022/11/05 11:32:39;;;;;;;5.33;1.57;;;18.20;67.80;;;;;;5052399;28;20179;-68
2022/11/05 11:35:24;;;;;;;4.03;1.30;;;18.30;67.90;;;;;;5051370;28;20266;-68
2022/11/05 11:37:56;;;;;;;6.03;1.50;;;18.20;68.20;;;;;;5052102;28;20230;-69
2022/11/05 11:40:30;;;;;;;5.60;1.37;;;18.20;68.00;;;;;;5051764;28;20200;-70
2022/11/05 11:43:02;;;;;;;5.97;1.50;;;18.20;68.30;;;;;;5052263;28;20179;-70
2022/11/05 11:45:47;;;;;;;6.80;2.23;;;18.10;68.50;;;;;;5050809;28;20262;-72
2022/11/05 11:48:21;;;;;;;10.07;1.60;;;18.10;68.90;;;;;;5051893;28;20188;-71
2022/11/05 11:50:49;;;;;;;8.07;1.93;;;18.10;69.00;;;;;;5052091;28;20195;-72
2022/11/05 11:53:22;;;;;;;8.83;2.03;;;18.00;69.20;;;;;;5052151;28;20198;-68
2022/11/05 11:55:58;;;;;;;6.63;1.73;;;18.00;69.10;;;;;;5050911;28;20208;-69
2022/11/05 11:58:51;;;;;;;7.33;1.67;;;18.00;69.60;;;;;;5033290;28;20596;-67
2022/11/05 12:01:51;;;;;;;6.13;1.13;;;17.90;69.80;;;;;;5043149;28;20183;-73
2022/11/05 12:04:57;;;;;;;5.17;1.50;;;17.90;69.70;;;;;;5051509;28;20182;-69
2022/11/05 12:07:41;;;;;;;7.00;1.60;;;17.80;70.10;;;;;;5043293;28;20203;-71
2022/11/05 12:10:46;;;;;;;8.57;1.50;;;17.80;70.40;;;;;;5052060;28;20179;-73
2022/11/05 12:13:22;;;;;;;7.90;1.73;;;17.80;70.80;;;;;;5050922;28;20187;-69
2022/11/05 12:15:53;;;;;;;5.27;1.50;;;17.80;70.90;;;;;;5051657;28;20207;-70
2022/11/05 12:18:36;;;;;;;8.50;1.70;;;17.70;71.10;;;;;;5052625;28;20187;-74
2022/11/05 12:21:34;;;;;;;6.00;1.63;;;17.70;70.90;;;;;;5055484;28;20191;-69
2022/11/05 12:24:22;;;;;;;9.70;2.20;;;17.60;71.50;;;;;;5052136;28;20209;-70
2022/11/05 12:26:58;;;;;;;5.57;1.83;;;17.50;71.30;;;;;;5048087;28;20961;-68
2022/11/05 12:29:42;;;;;;;12.20;2.57;;;17.40;71.60;;;;;;5055137;28;20234;-67
2022/11/05 12:32:35;;;;;;;7.17;2.43;;;17.40;72.20;;;;;;5055184;28;20184;-68
2022/11/05 12:35:27;;;;;;;12.90;2.40;;;17.40;72.30;;;;;;5044093;28;20184;-70
2022/11/05 12:38:19;;;;;;;9.10;1.90;;;17.40;72.40;;;;;;5055057;28;20192;-67
2022/11/05 12:41:10;;;;;;;7.77;1.97;;;17.40;72.60;;;;;;5054738;28;20226;-70
2022/11/05 12:44:03;;;;;;;6.10;1.80;;;17.40;72.70;;;;;;5044982;28;20184;-68
2022/11/05 12:46:59;;;;;;;5.53;1.80;;;17.40;72.90;;;;;;5054222;28;20539;-67
2022/11/05 12:49:41;;;;;;;8.07;1.70;;;17.40;72.90;;;;;;5054315;28;20211;-68
2022/11/05 12:52:20;;;;;;;7.90;2.10;;;17.30;72.70;;;;;;5054521;28;20182;-70
2022/11/05 12:55:10;;;;;;;5.00;1.90;;;17.30;73.10;;;;;;5052715;28;20673;-70
2022/11/05 12:57:41;;;;;;;8.27;1.70;;;17.30;73.50;;;;;;5054702;28;20708;-69
2022/11/05 13:00:21;;;;;;;6.63;1.80;;;17.30;73.50;;;;;;5054660;28;20183;-69
2022/11/05 13:03:07;;;;;;;8.27;1.70;;;17.30;73.70;;;;;;5054057;28;20176;-68
2022/11/05 13:05:53;;;;;;;6.07;1.83;;;17.20;73.90;;;;;;5052957;28;20232;-69
2022/11/05 13:08:23;;;;;;;3.40;1.70;;;17.20;74.00;;;;;;5054557;28;20289;-67
2022/11/05 13:11:09;;;;;;;8.43;2.27;;;17.10;74.10;;;;;;5053945;28;20608;-67
2022/11/05 13:13:42;;;;;;;10.77;2.50;;;17.00;74.00;;;;;;5054212;28;20179;-67
2022/11/05 13:16:16;;;;;;;7.67;1.93;;;17.00;74.20;;;;;;5052885;28;20322;-67
2022/11/05 13:18:54;;;;;;;5.93;2.27;;;17.00;74.30;;;;;;5053836;28;20183;-67
2022/11/05 13:21:25;;;;;;;7.90;2.10;;;17.00;74.50;;;;;;5054256;28;20185;-66
2022/11/05 13:24:10;;;;;;;10.73;2.07;;;17.00;74.60;;;;;;5054014;28;20201;-67
2022/11/05 13:26:43;;;;;;;6.93;2.00;;;16.90;74.40;;;;;;5053113;28;20654;-67
2022/11/05 13:29:48;;;;;;;11.53;3.43;;;16.80;74.40;;;;;;5053618;28;20183;-67
2022/11/05 13:32:33;;;;;;;8.70;2.40;;;16.80;75.10;;;;;;5051343;28;20187;-66
2022/11/05 13:35:03;;;;;;;7.17;2.03;;;16.80;75.30;;;;;;5054018;28;20191;-68
2022/11/05 13:40:51;;;;;;;5.30;2.10;;;16.80;75.60;;;;;;5048248;28;20177;-66
2022/11/05 13:43:44;;;;;;;5.90;1.90;;;16.70;75.70;;;;;;5053968;28;20239;-67
2022/11/05 13:46:23;;;;;;;6.03;2.57;;;16.70;75.50;;;;;;5040944;28;20191;-67
2022/11/05 13:49:35;;;;;;;4.97;2.10;;;16.60;76.00;;;;;;5054130;28;20187;-67
2022/11/05 13:52:23;;;;;;;6.60;2.03;;;16.60;76.40;;;;;;5020096;28;20218;-67
2022/11/05 13:54:56;;;;;;;6.17;1.70;;;16.60;76.30;;;;;;5052562;28;20180;-66
2022/11/05 13:57:56;;;;;;;6.43;2.00;;;16.60;77.10;;;;;;5053314;28;20220;-66
2022/11/05 14:00:26;;;;;;;4.57;1.70;;;16.60;77.30;;;;;;5053341;28;20181;-67
2022/11/05 14:03:05;;;;;;;5.53;2.10;;;16.70;77.40;;;;;;5035923;28;20390;-65
2022/11/05 14:05:40;;;;;;;8.60;1.97;;;16.60;77.20;;;;;;5053609;28;20178;-66
2022/11/05 14:08:09;;;;;;;4.47;2.00;;;16.50;77.50;;;;;;5053650;28;20206;-67